sensor_id;sensor_type;location;lat;lon;timestamp;P1;durP1;ratioP1;P2;durP2;ratioP2
37693;SDS011;23531;50.122;8.644;2024-02-28T00:01:29;25.75;;;15.57;;
37693;SDS011;23531;50.122;8.644;2024-02-28T00:03:30;27.38;;;16.05;;
37693;SDS011;23531;50.122;8.644;2024-02-28T00:05:33;27.13;;;15.98;;
37693;SDS011;23531;50.122;8.644;2024-02-28T00:07:34;25.10;;;15.68;;
37693;SDS011;23531;50.122;8.644;2024-02-28T00:09:36;33.20;;;18.50;;
37693;SDS011;23531;50.122;8.644;2024-02-28T00:11:40;37.50;;;20.98;;
37693;SDS011;23531;50.122;8.644;2024-02-28T00:13:42;28.23;;;17.88;;
37693;SDS011;23531;50.122;8.644;2024-02-28T00:15:43;29.30;;;15.80;;
37693;SDS011;23531;50.122;8.644;2024-02-28T00:17:45;26.58;;;15.35;;
37693;SDS011;23531;50.122;8.644;2024-02-28T00:19:47;27.55;;;15.73;;
37693;SDS011;23531;50.122;8.644;2024-02-28T00:21:48;25.35;;;15.50;;
37693;SDS011;23531;50.122;8.644;2024-02-28T00:23:49;26.80;;;15.65;;
37693;SDS011;23531;50.122;8.644;2024-02-28T00:25:51;25.08;;;15.43;;
37693;SDS011;23531;50.122;8.644;2024-02-28T00:27:53;24.25;;;15.00;;
37693;SDS011;23531;50.122;8.644;2024-02-28T00:29:53;25.13;;;15.70;;
37693;SDS011;23531;50.122;8.644;2024-02-28T00:31:55;25.55;;;15.43;;
37693;SDS011;23531;50.122;8.644;2024-02-28T00:33:57;27.25;;;16.35;;
37693;SDS011;23531;50.122;8.644;2024-02-28T00:35:59;27.20;;;16.02;;
37693;SDS011;23531;50.122;8.644;2024-02-28T00:38:00;23.50;;;15.63;;
37693;SDS011;23531;50.122;8.644;2024-02-28T00:40:03;25.17;;;15.30;;
37693;SDS011;23531;50.122;8.644;2024-02-28T00:42:05;27.23;;;16.15;;
37693;SDS011;23531;50.122;8.644;2024-02-28T00:44:06;26.63;;;15.55;;
37693;SDS011;23531;50.122;8.644;2024-02-28T00:46:07;25.23;;;15.45;;
37693;SDS011;23531;50.122;8.644;2024-02-28T00:48:11;26.98;;;16.02;;
37693;SDS011;23531;50.122;8.644;2024-02-28T00:50:14;26.90;;;15.90;;
37693;SDS011;23531;50.122;8.644;2024-02-28T00:52:16;28.38;;;16.85;;
37693;SDS011;23531;50.122;8.644;2024-02-28T00:54:17;27.23;;;16.50;;
37693;SDS011;23531;50.122;8.644;2024-02-28T00:56:18;26.70;;;15.05;;
37693;SDS011;23531;50.122;8.644;2024-02-28T00:58:19;27.13;;;16.05;;
37693;SDS011;23531;50.122;8.644;2024-02-28T01:00:20;29.58;;;15.25;;
37693;SDS011;23531;50.122;8.644;2024-02-28T01:02:21;25.83;;;15.77;;
37693;SDS011;23531;50.122;8.644;2024-02-28T01:04:23;28.13;;;16.35;;
37693;SDS011;23531;50.122;8.644;2024-02-28T01:06:25;29.42;;;16.33;;
37693;SDS011;23531;50.122;8.644;2024-02-28T01:08:27;28.35;;;16.77;;
37693;SDS011;23531;50.122;8.644;2024-02-28T01:10:29;30.70;;;17.48;;
37693;SDS011;23531;50.122;8.644;2024-02-28T01:12:31;26.75;;;15.57;;
37693;SDS011;23531;50.122;8.644;2024-02-28T01:14:32;27.35;;;16.02;;
37693;SDS011;23531;50.122;8.644;2024-02-28T01:16:33;29.98;;;16.63;;
37693;SDS011;23531;50.122;8.644;2024-02-28T01:18:34;28.23;;;16.63;;
37693;SDS011;23531;50.122;8.644;2024-02-28T01:20:35;29.75;;;16.95;;
37693;SDS011;23531;50.122;8.644;2024-02-28T01:22:37;27.17;;;16.10;;
37693;SDS011;23531;50.122;8.644;2024-02-28T01:24:39;27.65;;;16.45;;
37693;SDS011;23531;50.122;8.644;2024-02-28T01:26:40;31.42;;;17.08;;
37693;SDS011;23531;50.122;8.644;2024-02-28T01:28:41;28.60;;;16.33;;
37693;SDS011;23531;50.122;8.644;2024-02-28T01:30:43;28.98;;;16.83;;
37693;SDS011;23531;50.122;8.644;2024-02-28T01:32:46;25.70;;;16.23;;
37693;SDS011;23531;50.122;8.644;2024-02-28T01:34:48;26.83;;;16.60;;
37693;SDS011;23531;50.122;8.644;2024-02-28T01:36:49;76.57;;;42.20;;
37693;SDS011;23531;50.122;8.644;2024-02-28T01:38:52;109.75;;;60.47;;
37693;SDS011;23531;50.122;8.644;2024-02-28T01:40:54;45.22;;;25.83;;
37693;SDS011;23531;50.122;8.644;2024-02-28T01:43:01;29.77;;;16.90;;
37693;SDS011;23531;50.122;8.644;2024-02-28T01:45:04;28.40;;;16.80;;
37693;SDS011;23531;50.122;8.644;2024-02-28T01:47:09;29.27;;;16.88;;
37693;SDS011;23531;50.122;8.644;2024-02-28T01:49:10;25.15;;;15.68;;
37693;SDS011;23531;50.122;8.644;2024-02-28T01:51:11;29.00;;;16.13;;
37693;SDS011;23531;50.122;8.644;2024-02-28T01:53:13;28.15;;;17.45;;
37693;SDS011;23531;50.122;8.644;2024-02-28T01:55:16;28.10;;;17.02;;
37693;SDS011;23531;50.122;8.644;2024-02-28T01:57:18;26.52;;;16.67;;
37693;SDS011;23531;50.122;8.644;2024-02-28T01:59:19;29.75;;;16.58;;
37693;SDS011;23531;50.122;8.644;2024-02-28T02:01:25;27.67;;;17.27;;
37693;SDS011;23531;50.122;8.644;2024-02-28T02:03:27;30.88;;;17.25;;
37693;SDS011;23531;50.122;8.644;2024-02-28T02:05:28;29.80;;;17.48;;
37693;SDS011;23531;50.122;8.644;2024-02-28T02:07:30;28.77;;;17.08;;
37693;SDS011;23531;50.122;8.644;2024-02-28T02:09:31;29.50;;;17.08;;
37693;SDS011;23531;50.122;8.644;2024-02-28T02:11:35;29.55;;;16.67;;
37693;SDS011;23531;50.122;8.644;2024-02-28T02:13:46;29.67;;;17.15;;
37693;SDS011;23531;50.122;8.644;2024-02-28T02:15:48;30.08;;;17.73;;
37693;SDS011;23531;50.122;8.644;2024-02-28T02:17:50;29.77;;;17.45;;
37693;SDS011;23531;50.122;8.644;2024-02-28T02:19:50;31.10;;;17.88;;
37693;SDS011;23531;50.122;8.644;2024-02-28T02:21:52;29.77;;;17.67;;
37693;SDS011;23531;50.122;8.644;2024-02-28T02:23:56;30.55;;;17.05;;
37693;SDS011;23531;50.122;8.644;2024-02-28T02:25:57;30.52;;;17.45;;
37693;SDS011;23531;50.122;8.644;2024-02-28T02:27:59;29.40;;;17.65;;
37693;SDS011;23531;50.122;8.644;2024-02-28T02:30:00;32.72;;;17.88;;
37693;SDS011;23531;50.122;8.644;2024-02-28T02:32:02;33.25;;;18.58;;
37693;SDS011;23531;50.122;8.644;2024-02-28T02:34:03;46.05;;;27.65;;
37693;SDS011;23531;50.122;8.644;2024-02-28T02:36:04;33.10;;;18.05;;
37693;SDS011;23531;50.122;8.644;2024-02-28T02:38:06;29.65;;;16.42;;
37693;SDS011;23531;50.122;8.644;2024-02-28T02:40:09;32.17;;;17.55;;
37693;SDS011;23531;50.122;8.644;2024-02-28T02:42:12;31.70;;;18.17;;
37693;SDS011;23531;50.122;8.644;2024-02-28T02:44:15;31.58;;;17.25;;
37693;SDS011;23531;50.122;8.644;2024-02-28T02:46:16;33.58;;;17.67;;
37693;SDS011;23531;50.122;8.644;2024-02-28T02:48:18;31.77;;;18.15;;
37693;SDS011;23531;50.122;8.644;2024-02-28T02:50:19;33.10;;;17.17;;
37693;SDS011;23531;50.122;8.644;2024-02-28T02:52:21;33.05;;;18.27;;
37693;SDS011;23531;50.122;8.644;2024-02-28T02:54:22;30.77;;;17.73;;
37693;SDS011;23531;50.122;8.644;2024-02-28T02:56:25;30.05;;;17.13;;
37693;SDS011;23531;50.122;8.644;2024-02-28T02:58:26;31.80;;;17.92;;
37693;SDS011;23531;50.122;8.644;2024-02-28T03:00:26;32.88;;;18.95;;
37693;SDS011;23531;50.122;8.644;2024-02-28T03:02:28;32.38;;;17.73;;
37693;SDS011;23531;50.122;8.644;2024-02-28T03:04:29;33.15;;;18.50;;
37693;SDS011;23531;50.122;8.644;2024-02-28T03:06:30;34.22;;;19.17;;
37693;SDS011;23531;50.122;8.644;2024-02-28T03:08:32;30.05;;;17.52;;
37693;SDS011;23531;50.122;8.644;2024-02-28T03:10:33;31.65;;;18.85;;
37693;SDS011;23531;50.122;8.644;2024-02-28T03:12:35;31.75;;;17.95;;
37693;SDS011;23531;50.122;8.644;2024-02-28T03:14:36;34.33;;;18.27;;
37693;SDS011;23531;50.122;8.644;2024-02-28T03:16:40;34.63;;;18.70;;
37693;SDS011;23531;50.122;8.644;2024-02-28T03:18:42;31.98;;;18.60;;
37693;SDS011;23531;50.122;8.644;2024-02-28T03:20:43;33.45;;;18.55;;
37693;SDS011;23531;50.122;8.644;2024-02-28T03:22:44;31.27;;;17.40;;
37693;SDS011;23531;50.122;8.644;2024-02-28T03:24:45;35.25;;;18.67;;
37693;SDS011;23531;50.122;8.644;2024-02-28T03:26:48;35.17;;;18.92;;
37693;SDS011;23531;50.122;8.644;2024-02-28T03:28:50;37.20;;;18.58;;
37693;SDS011;23531;50.122;8.644;2024-02-28T03:30:51;35.10;;;20.33;;
37693;SDS011;23531;50.122;8.644;2024-02-28T03:32:53;34.00;;;18.00;;
37693;SDS011;23531;50.122;8.644;2024-02-28T03:34:54;36.88;;;19.67;;
37693;SDS011;23531;50.122;8.644;2024-02-28T03:36:55;35.13;;;18.45;;
37693;SDS011;23531;50.122;8.644;2024-02-28T03:38:56;34.58;;;19.60;;
37693;SDS011;23531;50.122;8.644;2024-02-28T03:40:57;34.60;;;18.98;;
37693;SDS011;23531;50.122;8.644;2024-02-28T03:42:59;37.20;;;19.67;;
37693;SDS011;23531;50.122;8.644;2024-02-28T03:45:02;33.45;;;17.67;;
37693;SDS011;23531;50.122;8.644;2024-02-28T03:47:04;34.70;;;19.67;;
37693;SDS011;23531;50.122;8.644;2024-02-28T03:49:06;36.75;;;19.42;;
37693;SDS011;23531;50.122;8.644;2024-02-28T03:51:08;36.33;;;19.95;;
37693;SDS011;23531;50.122;8.644;2024-02-28T03:53:09;35.40;;;18.35;;
37693;SDS011;23531;50.122;8.644;2024-02-28T03:55:10;35.42;;;18.52;;
37693;SDS011;23531;50.122;8.644;2024-02-28T03:57:11;35.40;;;18.65;;
37693;SDS011;23531;50.122;8.644;2024-02-28T03:59:12;37.30;;;19.77;;
37693;SDS011;23531;50.122;8.644;2024-02-28T04:01:14;36.88;;;19.88;;
37693;SDS011;23531;50.122;8.644;2024-02-28T04:03:15;36.08;;;17.88;;
37693;SDS011;23531;50.122;8.644;2024-02-28T04:05:17;34.38;;;18.90;;
37693;SDS011;23531;50.122;8.644;2024-02-28T04:07:18;35.45;;;19.13;;
37693;SDS011;23531;50.122;8.644;2024-02-28T04:09:20;34.60;;;19.70;;
37693;SDS011;23531;50.122;8.644;2024-02-28T04:11:21;39.75;;;21.40;;
37693;SDS011;23531;50.122;8.644;2024-02-28T04:13:24;36.75;;;19.52;;
37693;SDS011;23531;50.122;8.644;2024-02-28T04:15:24;36.17;;;19.08;;
37693;SDS011;23531;50.122;8.644;2024-02-28T04:17:28;39.30;;;19.85;;
37693;SDS011;23531;50.122;8.644;2024-02-28T04:19:32;34.53;;;19.05;;
37693;SDS011;23531;50.122;8.644;2024-02-28T04:21:34;38.83;;;20.17;;
37693;SDS011;23531;50.122;8.644;2024-02-28T04:23:35;37.17;;;20.35;;
37693;SDS011;23531;50.122;8.644;2024-02-28T04:25:38;37.63;;;20.17;;
37693;SDS011;23531;50.122;8.644;2024-02-28T04:27:40;39.08;;;20.88;;
37693;SDS011;23531;50.122;8.644;2024-02-28T04:29:42;38.65;;;20.25;;
37693;SDS011;23531;50.122;8.644;2024-02-28T04:31:43;37.90;;;20.25;;
37693;SDS011;23531;50.122;8.644;2024-02-28T04:33:46;41.00;;;20.42;;
37693;SDS011;23531;50.122;8.644;2024-02-28T04:35:47;39.03;;;20.20;;
37693;SDS011;23531;50.122;8.644;2024-02-28T04:37:49;39.05;;;20.30;;
37693;SDS011;23531;50.122;8.644;2024-02-28T04:39:50;40.17;;;20.27;;
37693;SDS011;23531;50.122;8.644;2024-02-28T04:41:52;39.13;;;20.85;;
37693;SDS011;23531;50.122;8.644;2024-02-28T04:43:53;38.13;;;20.08;;
37693;SDS011;23531;50.122;8.644;2024-02-28T04:45:53;39.30;;;20.95;;
37693;SDS011;23531;50.122;8.644;2024-02-28T04:47:55;39.70;;;20.38;;
37693;SDS011;23531;50.122;8.644;2024-02-28T04:49:58;42.03;;;21.58;;
37693;SDS011;23531;50.122;8.644;2024-02-28T04:52:00;39.92;;;20.38;;
37693;SDS011;23531;50.122;8.644;2024-02-28T04:54:01;41.05;;;20.88;;
37693;SDS011;23531;50.122;8.644;2024-02-28T04:56:02;41.17;;;21.08;;
37693;SDS011;23531;50.122;8.644;2024-02-28T04:58:04;43.05;;;21.35;;
37693;SDS011;23531;50.122;8.644;2024-02-28T05:00:05;39.60;;;20.98;;
37693;SDS011;23531;50.122;8.644;2024-02-28T05:02:08;38.65;;;20.20;;
37693;SDS011;23531;50.122;8.644;2024-02-28T05:04:10;41.72;;;22.05;;
37693;SDS011;23531;50.122;8.644;2024-02-28T05:06:12;37.55;;;20.30;;
37693;SDS011;23531;50.122;8.644;2024-02-28T05:08:13;41.75;;;21.20;;
37693;SDS011;23531;50.122;8.644;2024-02-28T05:10:15;41.35;;;21.48;;
37693;SDS011;23531;50.122;8.644;2024-02-28T05:12:16;39.65;;;21.75;;
37693;SDS011;23531;50.122;8.644;2024-02-28T05:14:18;43.88;;;22.33;;
37693;SDS011;23531;50.122;8.644;2024-02-28T05:16:19;42.30;;;21.85;;
37693;SDS011;23531;50.122;8.644;2024-02-28T05:18:21;43.00;;;21.33;;
37693;SDS011;23531;50.122;8.644;2024-02-28T05:20:22;41.10;;;22.70;;
37693;SDS011;23531;50.122;8.644;2024-02-28T05:22:24;40.35;;;21.88;;
37693;SDS011;23531;50.122;8.644;2024-02-28T05:24:25;43.78;;;20.95;;
37693;SDS011;23531;50.122;8.644;2024-02-28T05:26:27;44.05;;;21.65;;
37693;SDS011;23531;50.122;8.644;2024-02-28T05:28:27;42.47;;;21.52;;
37693;SDS011;23531;50.122;8.644;2024-02-28T05:30:28;41.42;;;22.13;;
37693;SDS011;23531;50.122;8.644;2024-02-28T05:32:29;43.70;;;21.83;;
37693;SDS011;23531;50.122;8.644;2024-02-28T05:34:30;45.20;;;22.30;;
37693;SDS011;23531;50.122;8.644;2024-02-28T05:36:32;45.35;;;21.83;;
37693;SDS011;23531;50.122;8.644;2024-02-28T05:38:34;43.60;;;21.35;;
37693;SDS011;23531;50.122;8.644;2024-02-28T05:40:36;40.90;;;22.30;;
37693;SDS011;23531;50.122;8.644;2024-02-28T05:42:37;44.85;;;22.73;;
37693;SDS011;23531;50.122;8.644;2024-02-28T05:44:39;43.55;;;23.25;;
37693;SDS011;23531;50.122;8.644;2024-02-28T05:46:41;40.42;;;21.35;;
37693;SDS011;23531;50.122;8.644;2024-02-28T05:48:42;43.83;;;22.65;;
37693;SDS011;23531;50.122;8.644;2024-02-28T05:50:44;44.45;;;22.40;;
37693;SDS011;23531;50.122;8.644;2024-02-28T05:52:45;39.60;;;20.85;;
37693;SDS011;23531;50.122;8.644;2024-02-28T05:54:48;44.03;;;23.15;;
37693;SDS011;23531;50.122;8.644;2024-02-28T05:56:50;45.00;;;22.52;;
37693;SDS011;23531;50.122;8.644;2024-02-28T05:58:52;48.42;;;23.15;;
37693;SDS011;23531;50.122;8.644;2024-02-28T06:00:54;44.95;;;22.08;;
37693;SDS011;23531;50.122;8.644;2024-02-28T06:02:55;47.92;;;24.17;;
37693;SDS011;23531;50.122;8.644;2024-02-28T06:04:57;44.92;;;23.08;;
37693;SDS011;23531;50.122;8.644;2024-02-28T06:06:58;45.17;;;22.75;;
37693;SDS011;23531;50.122;8.644;2024-02-28T06:09:00;47.33;;;23.70;;
37693;SDS011;23531;50.122;8.644;2024-02-28T06:11:03;45.53;;;22.10;;
37693;SDS011;23531;50.122;8.644;2024-02-28T06:13:05;45.33;;;22.92;;
37693;SDS011;23531;50.122;8.644;2024-02-28T06:15:05;44.08;;;22.63;;
37693;SDS011;23531;50.122;8.644;2024-02-28T06:17:07;46.03;;;23.17;;
37693;SDS011;23531;50.122;8.644;2024-02-28T06:19:08;42.88;;;22.35;;
37693;SDS011;23531;50.122;8.644;2024-02-28T06:21:10;43.17;;;21.38;;
37693;SDS011;23531;50.122;8.644;2024-02-28T06:23:11;46.13;;;22.90;;
37693;SDS011;23531;50.122;8.644;2024-02-28T06:25:12;50.97;;;23.17;;
37693;SDS011;23531;50.122;8.644;2024-02-28T06:27:20;46.38;;;22.55;;
37693;SDS011;23531;50.122;8.644;2024-02-28T06:29:21;41.70;;;22.95;;
37693;SDS011;23531;50.122;8.644;2024-02-28T06:31:23;53.28;;;23.38;;
37693;SDS011;23531;50.122;8.644;2024-02-28T06:33:24;48.03;;;23.60;;
37693;SDS011;23531;50.122;8.644;2024-02-28T06:35:25;45.63;;;24.17;;
37693;SDS011;23531;50.122;8.644;2024-02-28T06:37:26;50.13;;;24.35;;
37693;SDS011;23531;50.122;8.644;2024-02-28T06:39:28;46.50;;;23.35;;
37693;SDS011;23531;50.122;8.644;2024-02-28T06:41:29;48.47;;;24.08;;
37693;SDS011;23531;50.122;8.644;2024-02-28T06:43:32;47.45;;;23.85;;
37693;SDS011;23531;50.122;8.644;2024-02-28T06:45:34;46.85;;;23.63;;
37693;SDS011;23531;50.122;8.644;2024-02-28T06:47:35;49.85;;;23.38;;
37693;SDS011;23531;50.122;8.644;2024-02-28T06:49:37;51.63;;;24.10;;
37693;SDS011;23531;50.122;8.644;2024-02-28T06:51:39;50.92;;;25.30;;
37693;SDS011;23531;50.122;8.644;2024-02-28T06:53:40;46.03;;;24.33;;
37693;SDS011;23531;50.122;8.644;2024-02-28T06:55:42;48.22;;;24.42;;
37693;SDS011;23531;50.122;8.644;2024-02-28T06:57:44;49.55;;;24.50;;
37693;SDS011;23531;50.122;8.644;2024-02-28T06:59:47;52.60;;;24.33;;
37693;SDS011;23531;50.122;8.644;2024-02-28T07:01:48;48.70;;;24.40;;
37693;SDS011;23531;50.122;8.644;2024-02-28T07:03:49;46.83;;;22.98;;
37693;SDS011;23531;50.122;8.644;2024-02-28T07:05:51;50.05;;;24.05;;
37693;SDS011;23531;50.122;8.644;2024-02-28T07:07:53;49.22;;;24.00;;
37693;SDS011;23531;50.122;8.644;2024-02-28T07:09:53;46.13;;;23.42;;
37693;SDS011;23531;50.122;8.644;2024-02-28T07:11:55;51.13;;;23.45;;
37693;SDS011;23531;50.122;8.644;2024-02-28T07:13:56;46.03;;;21.95;;
37693;SDS011;23531;50.122;8.644;2024-02-28T07:16:03;46.15;;;23.80;;
37693;SDS011;23531;50.122;8.644;2024-02-28T07:18:05;52.17;;;24.05;;
37693;SDS011;23531;50.122;8.644;2024-02-28T07:20:06;46.88;;;23.27;;
37693;SDS011;23531;50.122;8.644;2024-02-28T07:22:09;51.53;;;24.33;;
37693;SDS011;23531;50.122;8.644;2024-02-28T07:24:10;48.08;;;24.08;;
37693;SDS011;23531;50.122;8.644;2024-02-28T07:26:14;48.22;;;24.23;;
37693;SDS011;23531;50.122;8.644;2024-02-28T07:28:16;50.40;;;24.77;;
37693;SDS011;23531;50.122;8.644;2024-02-28T07:30:17;48.58;;;24.10;;
37693;SDS011;23531;50.122;8.644;2024-02-28T07:32:19;76.93;;;37.22;;
37693;SDS011;23531;50.122;8.644;2024-02-28T07:34:21;49.55;;;24.00;;
37693;SDS011;23531;50.122;8.644;2024-02-28T07:36:22;46.30;;;22.65;;
37693;SDS011;23531;50.122;8.644;2024-02-28T07:38:24;48.60;;;24.02;;
37693;SDS011;23531;50.122;8.644;2024-02-28T07:40:27;50.08;;;23.77;;
37693;SDS011;23531;50.122;8.644;2024-02-28T07:42:29;45.58;;;24.23;;
37693;SDS011;23531;50.122;8.644;2024-02-28T07:44:30;49.53;;;24.55;;
37693;SDS011;23531;50.122;8.644;2024-02-28T07:46:31;47.58;;;23.58;;
37693;SDS011;23531;50.122;8.644;2024-02-28T07:48:33;49.53;;;24.10;;
37693;SDS011;23531;50.122;8.644;2024-02-28T07:50:35;46.60;;;22.48;;
37693;SDS011;23531;50.122;8.644;2024-02-28T07:52:38;46.97;;;24.35;;
37693;SDS011;23531;50.122;8.644;2024-02-28T07:54:39;48.83;;;24.85;;
37693;SDS011;23531;50.122;8.644;2024-02-28T07:56:43;46.83;;;22.90;;
37693;SDS011;23531;50.122;8.644;2024-02-28T07:58:44;48.13;;;24.23;;
37693;SDS011;23531;50.122;8.644;2024-02-28T08:00:45;48.25;;;23.27;;
37693;SDS011;23531;50.122;8.644;2024-02-28T08:02:46;46.05;;;23.30;;
37693;SDS011;23531;50.122;8.644;2024-02-28T08:04:49;47.45;;;22.80;;
37693;SDS011;23531;50.122;8.644;2024-02-28T08:06:50;44.75;;;22.52;;
37693;SDS011;23531;50.122;8.644;2024-02-28T08:08:51;42.50;;;22.60;;
37693;SDS011;23531;50.122;8.644;2024-02-28T08:10:52;49.58;;;23.25;;
37693;SDS011;23531;50.122;8.644;2024-02-28T08:12:54;44.58;;;21.98;;
37693;SDS011;23531;50.122;8.644;2024-02-28T08:14:56;47.92;;;23.50;;
37693;SDS011;23531;50.122;8.644;2024-02-28T08:16:57;47.42;;;22.90;;
37693;SDS011;23531;50.122;8.644;2024-02-28T08:18:59;49.55;;;22.65;;
37693;SDS011;23531;50.122;8.644;2024-02-28T08:21:02;44.88;;;23.00;;
37693;SDS011;23531;50.122;8.644;2024-02-28T08:23:04;48.10;;;22.00;;
37693;SDS011;23531;50.122;8.644;2024-02-28T08:25:05;50.47;;;22.73;;
37693;SDS011;23531;50.122;8.644;2024-02-28T08:27:07;47.00;;;21.90;;
37693;SDS011;23531;50.122;8.644;2024-02-28T08:29:08;49.75;;;22.95;;
37693;SDS011;23531;50.122;8.644;2024-02-28T08:31:09;49.90;;;24.02;;
37693;SDS011;23531;50.122;8.644;2024-02-28T08:33:11;45.75;;;22.05;;
37693;SDS011;23531;50.122;8.644;2024-02-28T08:35:12;50.30;;;23.58;;
37693;SDS011;23531;50.122;8.644;2024-02-28T08:37:15;42.70;;;21.10;;
37693;SDS011;23531;50.122;8.644;2024-02-28T08:39:17;43.85;;;21.73;;
37693;SDS011;23531;50.122;8.644;2024-02-28T08:41:19;42.90;;;21.67;;
37693;SDS011;23531;50.122;8.644;2024-02-28T08:43:20;43.55;;;21.38;;
37693;SDS011;23531;50.122;8.644;2024-02-28T08:45:22;42.05;;;21.10;;
37693;SDS011;23531;50.122;8.644;2024-02-28T08:47:23;43.92;;;21.85;;
37693;SDS011;23531;50.122;8.644;2024-02-28T08:49:25;47.80;;;21.90;;
37693;SDS011;23531;50.122;8.644;2024-02-28T08:51:27;38.42;;;20.20;;
37693;SDS011;23531;50.122;8.644;2024-02-28T08:53:29;35.80;;;18.73;;
37693;SDS011;23531;50.122;8.644;2024-02-28T08:55:30;36.42;;;19.85;;
37693;SDS011;23531;50.122;8.644;2024-02-28T08:57:32;39.55;;;19.45;;
37693;SDS011;23531;50.122;8.644;2024-02-28T08:59:34;36.10;;;20.77;;
37693;SDS011;23531;50.122;8.644;2024-02-28T09:01:35;36.13;;;18.98;;
37693;SDS011;23531;50.122;8.644;2024-02-28T09:03:37;38.95;;;19.75;;
37693;SDS011;23531;50.122;8.644;2024-02-28T09:05:39;34.58;;;17.83;;
37693;SDS011;23531;50.122;8.644;2024-02-28T09:07:40;33.13;;;17.15;;
37693;SDS011;23531;50.122;8.644;2024-02-28T09:09:43;33.28;;;19.35;;
37693;SDS011;23531;50.122;8.644;2024-02-28T09:11:44;34.53;;;18.98;;
37693;SDS011;23531;50.122;8.644;2024-02-28T09:13:46;35.92;;;18.30;;
37693;SDS011;23531;50.122;8.644;2024-02-28T09:15:47;33.72;;;18.30;;
37693;SDS011;23531;50.122;8.644;2024-02-28T09:17:49;35.95;;;18.98;;
37693;SDS011;23531;50.122;8.644;2024-02-28T09:19:50;48.70;;;22.70;;
37693;SDS011;23531;50.122;8.644;2024-02-28T09:21:54;34.83;;;18.55;;
37693;SDS011;23531;50.122;8.644;2024-02-28T09:23:55;37.80;;;18.83;;
37693;SDS011;23531;50.122;8.644;2024-02-28T09:25:58;41.95;;;20.85;;
37693;SDS011;23531;50.122;8.644;2024-02-28T09:27:59;35.78;;;19.40;;
37693;SDS011;23531;50.122;8.644;2024-02-28T09:30:01;38.08;;;20.05;;
37693;SDS011;23531;50.122;8.644;2024-02-28T09:32:02;34.72;;;19.05;;
37693;SDS011;23531;50.122;8.644;2024-02-28T09:34:03;39.42;;;20.17;;
37693;SDS011;23531;50.122;8.644;2024-02-28T09:36:07;39.67;;;24.02;;
37693;SDS011;23531;50.122;8.644;2024-02-28T09:38:09;38.30;;;20.10;;
37693;SDS011;23531;50.122;8.644;2024-02-28T09:40:10;38.13;;;20.02;;
37693;SDS011;23531;50.122;8.644;2024-02-28T09:42:14;38.53;;;19.95;;
37693;SDS011;23531;50.122;8.644;2024-02-28T09:44:16;35.95;;;19.27;;
37693;SDS011;23531;50.122;8.644;2024-02-28T09:46:17;37.22;;;19.10;;
37693;SDS011;23531;50.122;8.644;2024-02-28T09:48:19;36.95;;;18.67;;
37693;SDS011;23531;50.122;8.644;2024-02-28T09:50:21;39.75;;;19.83;;
37693;SDS011;23531;50.122;8.644;2024-02-28T09:52:22;37.58;;;19.05;;
37693;SDS011;23531;50.122;8.644;2024-02-28T09:54:23;40.00;;;19.95;;
37693;SDS011;23531;50.122;8.644;2024-02-28T09:56:25;37.17;;;20.10;;
37693;SDS011;23531;50.122;8.644;2024-02-28T09:58:29;39.70;;;20.23;;
37693;SDS011;23531;50.122;8.644;2024-02-28T10:00:32;38.00;;;18.55;;
37693;SDS011;23531;50.122;8.644;2024-02-28T10:02:36;37.22;;;20.65;;
37693;SDS011;23531;50.122;8.644;2024-02-28T10:04:38;40.20;;;19.63;;
37693;SDS011;23531;50.122;8.644;2024-02-28T10:06:41;42.85;;;21.30;;
37693;SDS011;23531;50.122;8.644;2024-02-28T10:08:42;39.05;;;19.60;;
37693;SDS011;23531;50.122;8.644;2024-02-28T10:10:47;37.95;;;20.52;;
37693;SDS011;23531;50.122;8.644;2024-02-28T10:12:49;40.25;;;20.50;;
37693;SDS011;23531;50.122;8.644;2024-02-28T10:14:52;64.35;;;30.35;;
37693;SDS011;23531;50.122;8.644;2024-02-28T10:16:54;42.67;;;21.00;;
37693;SDS011;23531;50.122;8.644;2024-02-28T10:18:56;43.33;;;21.70;;
37693;SDS011;23531;50.122;8.644;2024-02-28T10:20:58;40.13;;;19.80;;
37693;SDS011;23531;50.122;8.644;2024-02-28T10:23:03;40.40;;;21.17;;
37693;SDS011;23531;50.122;8.644;2024-02-28T10:25:04;45.47;;;21.77;;
37693;SDS011;23531;50.122;8.644;2024-02-28T10:27:06;41.45;;;21.45;;
37693;SDS011;23531;50.122;8.644;2024-02-28T10:29:08;41.20;;;21.45;;
37693;SDS011;23531;50.122;8.644;2024-02-28T10:31:12;43.25;;;22.15;;
37693;SDS011;23531;50.122;8.644;2024-02-28T10:33:12;41.50;;;21.40;;
37693;SDS011;23531;50.122;8.644;2024-02-28T10:35:14;43.88;;;21.45;;
37693;SDS011;23531;50.122;8.644;2024-02-28T10:37:19;40.35;;;20.88;;
37693;SDS011;23531;50.122;8.644;2024-02-28T10:39:22;45.88;;;23.02;;
37693;SDS011;23531;50.122;8.644;2024-02-28T10:41:25;42.33;;;22.55;;
37693;SDS011;23531;50.122;8.644;2024-02-28T10:43:29;47.55;;;23.90;;
37693;SDS011;23531;50.122;8.644;2024-02-28T10:45:30;43.00;;;22.42;;
37693;SDS011;23531;50.122;8.644;2024-02-28T10:47:34;48.38;;;23.15;;
37693;SDS011;23531;50.122;8.644;2024-02-28T10:49:36;43.88;;;22.50;;
37693;SDS011;23531;50.122;8.644;2024-02-28T10:51:37;43.95;;;22.10;;
37693;SDS011;23531;50.122;8.644;2024-02-28T10:53:42;43.70;;;22.25;;
37693;SDS011;23531;50.122;8.644;2024-02-28T10:55:49;43.33;;;23.65;;
37693;SDS011;23531;50.122;8.644;2024-02-28T10:57:57;46.17;;;22.55;;
37693;SDS011;23531;50.122;8.644;2024-02-28T11:00:02;41.70;;;22.13;;
37693;SDS011;23531;50.122;8.644;2024-02-28T11:02:05;46.65;;;23.35;;
37693;SDS011;23531;50.122;8.644;2024-02-28T11:04:09;43.15;;;23.30;;
37693;SDS011;23531;50.122;8.644;2024-02-28T11:06:16;38.67;;;21.40;;
37693;SDS011;23531;50.122;8.644;2024-02-28T11:08:21;43.55;;;22.52;;
37693;SDS011;23531;50.122;8.644;2024-02-28T11:10:30;50.58;;;22.98;;
37693;SDS011;23531;50.122;8.644;2024-02-28T11:12:33;45.15;;;22.02;;
37693;SDS011;23531;50.122;8.644;2024-02-28T11:14:35;42.22;;;21.98;;
37693;SDS011;23531;50.122;8.644;2024-02-28T11:16:37;45.03;;;22.95;;
37693;SDS011;23531;50.122;8.644;2024-02-28T11:18:47;44.30;;;22.13;;
37693;SDS011;23531;50.122;8.644;2024-02-28T11:20:50;45.33;;;23.65;;
37693;SDS011;23531;50.122;8.644;2024-02-28T11:22:56;43.75;;;23.48;;
37693;SDS011;23531;50.122;8.644;2024-02-28T11:25:00;37.35;;;21.00;;
37693;SDS011;23531;50.122;8.644;2024-02-28T11:27:01;44.53;;;22.95;;
37693;SDS011;23531;50.122;8.644;2024-02-28T11:29:03;42.08;;;21.60;;
37693;SDS011;23531;50.122;8.644;2024-02-28T11:31:04;45.78;;;23.73;;
37693;SDS011;23531;50.122;8.644;2024-02-28T11:33:06;48.80;;;24.42;;
37693;SDS011;23531;50.122;8.644;2024-02-28T11:35:09;42.35;;;22.50;;
37693;SDS011;23531;50.122;8.644;2024-02-28T11:37:13;41.20;;;21.98;;
37693;SDS011;23531;50.122;8.644;2024-02-28T11:39:15;40.92;;;20.27;;
37693;SDS011;23531;50.122;8.644;2024-02-28T11:41:24;46.35;;;22.67;;
37693;SDS011;23531;50.122;8.644;2024-02-28T11:43:27;41.10;;;21.00;;
37693;SDS011;23531;50.122;8.644;2024-02-28T11:45:29;43.10;;;21.17;;
37693;SDS011;23531;50.122;8.644;2024-02-28T11:47:31;40.78;;;21.58;;
37693;SDS011;23531;50.122;8.644;2024-02-28T11:49:32;45.42;;;22.77;;
37693;SDS011;23531;50.122;8.644;2024-02-28T11:51:36;41.05;;;22.05;;
37693;SDS011;23531;50.122;8.644;2024-02-28T11:53:38;42.58;;;23.02;;